Time;durP1;ratioP1;P1;durP2;ratioP2;P2;SDS_P1;SDS_P2;PMS_P1;PMS_P2;Temp;Humidity;BMP_temperature;BMP_pressure;BME280_temperature;BME280_humidity;BME280_pressure;Samples;Min_cycle;Max_cycle;Signal;HPM_P1;HPM_P2
2023/12/10 00:00:46;;;;;;;17.02;3.42;;;9.70;99.90;;;;;;5033252;28;20383;-39
2023/12/10 00:03:12;;;;;;;17.02;3.15;;;9.60;99.90;;;;;;5027621;28;20072;-40
2023/12/10 00:05:37;;;;;;;8.60;1.88;;;9.50;99.90;;;;;;5031151;28;20025;-43
2023/12/10 00:08:03;;;;;;;20.23;3.25;;;9.40;99.90;;;;;;5031030;28;20037;-45
2023/12/10 00:10:29;;;;;;;24.40;3.50;;;9.40;99.90;;;;;;5032843;28;20029;-39
2023/12/10 00:12:55;;;;;;;23.45;3.08;;;9.30;99.90;;;;;;5033031;28;20486;-44
2023/12/10 00:15:20;;;;;;;12.32;2.47;;;9.40;99.90;;;;;;5033038;28;20030;-43
2023/12/10 00:17:46;;;;;;;20.13;2.80;;;9.30;99.90;;;;;;5032928;28;20036;-41
2023/12/10 00:20:12;;;;;;;14.57;2.03;;;9.30;99.90;;;;;;5032661;28;20128;-46
2023/12/10 00:22:37;;;;;;;23.88;2.97;;;9.30;99.90;;;;;;5032825;28;20013;-47
2023/12/10 00:25:04;;;;;;;21.52;4.38;;;9.30;99.90;;;;;;5032900;28;20032;-44
2023/12/10 00:27:29;;;;;;;24.42;3.13;;;9.30;99.90;;;;;;5032364;28;20029;-43
2023/12/10 00:29:55;;;;;;;21.65;2.78;;;9.30;99.90;;;;;;5032703;28;20029;-41
2023/12/10 00:32:20;;;;;;;25.98;2.63;;;9.30;99.90;;;;;;5031557;28;20029;-48
2023/12/10 00:34:46;;;;;;;19.25;2.60;;;9.30;99.90;;;;;;5032726;28;20117;-44
2023/12/10 00:37:12;;;;;;;12.38;3.42;;;9.20;99.90;;;;;;5032519;28;20029;-45
2023/12/10 00:39:39;;;;;;;30.48;5.03;;;9.20;99.90;;;;;;5032698;28;20076;-47
2023/12/10 00:42:04;;;;;;;24.30;2.90;;;9.10;99.90;;;;;;5032423;28;20067;-41
2023/12/10 00:44:30;;;;;;;20.75;1.98;;;9.10;99.90;;;;;;5027971;28;20418;-38
2023/12/10 00:46:56;;;;;;;28.73;4.28;;;9.10;99.90;;;;;;5030778;28;20150;-46
2023/12/10 00:49:22;;;;;;;15.13;2.38;;;9.10;99.90;;;;;;5031150;28;20387;-43
2023/12/10 00:51:47;;;;;;;19.00;3.50;;;9.00;99.90;;;;;;5031849;28;20499;-42
2023/12/10 00:54:13;;;;;;;34.03;3.70;;;9.00;99.90;;;;;;5032261;28;20033;-39
2023/12/10 00:56:39;;;;;;;27.10;3.75;;;9.10;99.90;;;;;;5031634;28;20119;-42
2023/12/10 00:59:05;;;;;;;29.17;3.85;;;9.10;99.90;;;;;;5030014;28;20049;-42
2023/12/10 01:01:31;;;;;;;32.38;3.70;;;9.10;99.90;;;;;;5030238;28;20028;-41
2023/12/10 01:03:56;;;;;;;18.55;4.00;;;9.10;99.90;;;;;;5030800;28;20108;-41
2023/12/10 01:06:22;;;;;;;26.65;3.28;;;9.10;99.90;;;;;;5032303;28;20090;-40
2023/12/10 01:08:48;;;;;;;11.38;2.45;;;9.00;99.90;;;;;;5032354;28;20033;-43
2023/12/10 01:11:14;;;;;;;27.88;3.90;;;9.00;99.90;;;;;;5032483;28;20560;-41
2023/12/10 01:13:40;;;;;;;22.85;2.85;;;9.00;99.90;;;;;;5032299;28;20041;-39
2023/12/10 01:16:07;;;;;;;10.65;2.63;;;9.00;99.90;;;;;;5032324;28;20034;-39
2023/12/10 01:18:32;;;;;;;19.50;3.38;;;9.00;99.90;;;;;;5032146;28;20045;-41
2023/12/10 01:20:58;;;;;;;18.65;2.10;;;9.00;99.90;;;;;;5032403;28;20025;-45
2023/12/10 01:23:24;;;;;;;35.13;3.38;;;9.00;99.90;;;;;;5031221;28;20056;-39
2023/12/10 01:25:50;;;;;;;15.63;3.03;;;9.00;99.90;;;;;;5032229;28;20036;-38
2023/12/10 01:28:16;;;;;;;15.52;2.58;;;9.00;99.90;;;;;;5032419;28;20412;-40
2023/12/10 01:30:41;;;;;;;14.40;2.25;;;9.00;99.90;;;;;;5031058;28;20116;-40
2023/12/10 01:33:07;;;;;;;26.90;2.50;;;9.10;99.90;;;;;;5032281;28;20034;-37
2023/12/10 01:35:33;;;;;;;25.67;3.92;;;9.10;99.90;;;;;;5032438;28;20053;-37
2023/12/10 01:37:59;;;;;;;29.10;3.65;;;9.20;99.90;;;;;;5031887;28;20025;-41
2023/12/10 01:40:25;;;;;;;25.80;2.10;;;9.20;99.90;;;;;;5032195;28;20400;-39
2023/12/10 01:42:51;;;;;;;23.30;2.83;;;9.20;99.90;;;;;;5032206;28;20029;-39
2023/12/10 01:45:20;;;;;;;20.85;2.58;;;9.20;99.90;;;;;;5035837;28;20056;-37
2023/12/10 01:47:49;;;;;;;24.27;2.90;;;9.20;99.90;;;;;;5034240;28;20076;-38
2023/12/10 01:50:15;;;;;;;23.00;2.95;;;9.30;99.90;;;;;;5035496;28;20079;-39
2023/12/10 01:52:42;;;;;;;13.43;1.77;;;9.30;99.90;;;;;;5035723;28;20513;-39
2023/12/10 01:55:09;;;;;;;18.10;2.67;;;9.30;99.90;;;;;;5035353;28;20475;-39
2023/12/10 01:57:36;;;;;;;26.88;2.92;;;9.30;99.90;;;;;;5035659;28;20053;-40
2023/12/10 02:00:06;;;;;;;18.42;1.65;;;9.20;99.90;;;;;;5035536;28;20029;-38
2023/12/10 02:02:39;;;;;;;31.58;3.10;;;9.20;99.90;;;;;;5050572;28;20548;-44
2023/12/10 02:05:09;;;;;;;14.10;1.98;;;9.20;99.90;;;;;;5035005;28;20088;-36
2023/12/10 02:07:35;;;;;;;14.15;2.63;;;9.20;99.90;;;;;;5035176;28;20433;-53
2023/12/10 02:10:04;;;;;;;15.00;2.35;;;9.20;99.90;;;;;;5035280;28;20064;-55
2023/12/10 02:12:31;;;;;;;24.17;3.80;;;9.10;99.90;;;;;;5034936;28;20487;-55
2023/12/10 02:14:56;;;;;;;34.50;3.67;;;9.00;99.90;;;;;;5035600;28;20083;-57
2023/12/10 02:17:22;;;;;;;35.05;3.17;;;8.90;99.90;;;;;;5035396;28;20430;-55
2023/12/10 02:19:49;;;;;;;22.85;3.17;;;8.80;99.90;;;;;;5034613;28;20091;-38
2023/12/10 02:22:19;;;;;;;14.20;2.17;;;8.80;99.90;;;;;;5031165;28;20475;-36
2023/12/10 02:24:54;;;;;;;20.25;3.10;;;8.70;99.90;;;;;;5032250;28;20079;-41
2023/12/10 02:27:20;;;;;;;25.63;2.08;;;8.70;99.90;;;;;;5035328;28;20487;-42
2023/12/10 02:29:50;;;;;;;16.02;2.45;;;8.60;99.90;;;;;;5035193;28;20091;-41
2023/12/10 02:32:16;;;;;;;25.85;2.30;;;8.60;99.90;;;;;;5020003;28;20475;-48
2023/12/10 02:34:42;;;;;;;37.97;4.00;;;8.50;99.90;;;;;;5034524;28;20156;-41
2023/12/10 02:37:08;;;;;;;26.63;3.15;;;8.50;99.90;;;;;;5017668;28;20030;-44
2023/12/10 02:39:33;;;;;;;25.50;3.30;;;8.60;99.90;;;;;;5034803;28;20048;-55
2023/12/10 02:41:59;;;;;;;17.70;2.63;;;8.50;99.90;;;;;;5034732;28;20025;-53
2023/12/10 02:44:25;;;;;;;30.33;3.50;;;8.50;99.90;;;;;;5033116;28;20530;-52
2023/12/10 02:46:51;;;;;;;21.95;3.28;;;8.60;99.90;;;;;;5034847;28;20076;-56
2023/12/10 02:49:17;;;;;;;25.05;2.80;;;8.60;99.90;;;;;;5033618;28;20061;-54
2023/12/10 02:51:42;;;;;;;27.77;5.45;;;8.60;99.90;;;;;;5034437;28;20484;-54
2023/12/10 02:54:08;;;;;;;19.67;4.53;;;8.50;99.90;;;;;;5034197;28;20036;-48
2023/12/10 02:56:34;;;;;;;22.73;2.65;;;8.50;99.90;;;;;;5017145;28;20030;-54
2023/12/10 02:59:00;;;;;;;33.50;4.03;;;8.50;99.90;;;;;;5014561;28;20064;-54
2023/12/10 03:01:26;;;;;;;28.63;3.35;;;8.50;99.90;;;;;;5013377;28;20030;-56
2023/12/10 03:03:52;;;;;;;29.20;4.35;;;8.50;99.90;;;;;;5026133;28;20116;-53
2023/12/10 03:06:18;;;;;;;26.58;2.83;;;8.50;99.90;;;;;;5032956;28;20470;-54
2023/12/10 03:08:44;;;;;;;26.73;4.15;;;8.50;99.90;;;;;;5033821;28;20034;-52
2023/12/10 03:11:09;;;;;;;15.07;2.50;;;8.50;99.90;;;;;;5034104;28;20029;-53
2023/12/10 03:13:35;;;;;;;23.80;3.63;;;8.40;99.90;;;;;;5033913;28;20025;-53
2023/12/10 03:16:01;;;;;;;28.73;4.03;;;8.40;99.90;;;;;;5033676;28;20037;-53
2023/12/10 03:18:27;;;;;;;20.05;4.07;;;8.50;99.90;;;;;;5033995;28;20029;-55
2023/12/10 03:20:53;;;;;;;23.10;3.40;;;8.50;99.90;;;;;;5033863;28;20515;-49
2023/12/10 03:23:19;;;;;;;36.13;3.38;;;8.40;99.90;;;;;;5033744;28;20079;-53
2023/12/10 03:25:44;;;;;;;21.08;3.25;;;8.40;99.90;;;;;;5033759;28;20483;-50
2023/12/10 03:28:10;;;;;;;19.92;4.18;;;8.40;99.90;;;;;;5033865;28;20037;-50
2023/12/10 03:30:36;;;;;;;26.98;4.00;;;8.40;99.90;;;;;;5033244;28;20029;-53
2023/12/10 03:33:02;;;;;;;19.95;3.35;;;8.40;99.90;;;;;;5032185;28;20371;-53
2023/12/10 03:35:27;;;;;;;29.73;3.30;;;8.40;99.90;;;;;;5033948;28;20032;-49
2023/12/10 03:37:53;;;;;;;24.13;4.75;;;8.40;99.90;;;;;;5033591;28;20112;-50
2023/12/10 03:40:19;;;;;;;25.30;3.75;;;8.40;99.90;;;;;;5033804;28;20029;-52
2023/12/10 03:42:44;;;;;;;22.20;4.15;;;8.40;99.90;;;;;;5033450;28;20022;-53
2023/12/10 03:45:10;;;;;;;18.10;2.53;;;8.40;99.90;;;;;;5033678;28;20064;-50
2023/12/10 03:47:36;;;;;;;19.77;5.07;;;8.40;99.90;;;;;;5033304;28;20025;-52
2023/12/10 03:50:05;;;;;;;15.98;2.45;;;8.30;99.90;;;;;;5033431;28;20025;-52
2023/12/10 03:52:31;;;;;;;24.58;2.85;;;8.30;99.90;;;;;;5033435;28;20038;-53
2023/12/10 03:54:57;;;;;;;22.48;3.10;;;8.40;99.90;;;;;;5032471;28;20052;-52
2023/12/10 03:57:22;;;;;;;32.15;3.58;;;8.30;99.90;;;;;;5033257;28;20029;-51
2023/12/10 03:59:48;;;;;;;33.65;4.10;;;8.40;99.90;;;;;;5032725;28;20108;-52
2023/12/10 04:02:14;;;;;;;20.63;3.90;;;8.40;99.90;;;;;;5033246;28;20029;-53
2023/12/10 04:04:39;;;;;;;24.15;2.80;;;8.40;99.90;;;;;;5032942;28;20427;-52
2023/12/10 04:07:05;;;;;;;29.52;3.85;;;8.40;99.90;;;;;;5033293;28;20022;-52
2023/12/10 04:09:31;;;;;;;19.98;3.85;;;8.40;99.90;;;;;;5033196;28;20018;-53
2023/12/10 04:11:58;;;;;;;37.80;3.10;;;8.40;99.90;;;;;;5032833;28;20028;-49
2023/12/10 04:14:24;;;;;;;41.70;4.27;;;8.50;99.90;;;;;;5033115;28;20427;-55
2023/12/10 04:16:51;;;;;;;27.30;4.15;;;8.50;99.90;;;;;;5032807;28;20022;-37
2023/12/10 04:19:16;;;;;;;34.08;2.88;;;8.50;99.90;;;;;;5030694;28;20547;-36
2023/12/10 04:21:42;;;;;;;31.80;3.58;;;8.50;99.90;;;;;;5032818;28;20037;-38
2023/12/10 04:24:08;;;;;;;28.27;3.08;;;8.60;99.90;;;;;;5032215;28;20013;-34
2023/12/10 04:26:33;;;;;;;32.22;3.50;;;8.60;99.90;;;;;;5032237;28;20064;-37
2023/12/10 04:29:02;;;;;;;21.38;2.88;;;8.60;99.90;;;;;;5032687;28;20057;-35
2023/12/10 04:31:28;;;;;;;18.70;2.45;;;8.70;99.90;;;;;;5032882;28;20029;-37
2023/12/10 04:33:54;;;;;;;27.52;3.15;;;8.80;99.90;;;;;;5031014;28;20033;-35
2023/12/10 04:36:20;;;;;;;24.40;2.55;;;8.80;99.90;;;;;;5032900;28;20033;-37
2023/12/10 04:38:46;;;;;;;15.32;2.50;;;8.80;99.90;;;;;;5032676;28;20036;-36
2023/12/10 04:41:11;;;;;;;16.95;3.83;;;8.90;99.90;;;;;;5032984;28;20489;-37
2023/12/10 04:43:38;;;;;;;31.95;4.05;;;8.90;99.90;;;;;;5032523;28;20025;-38
2023/12/10 04:46:04;;;;;;;14.35;3.40;;;9.00;99.90;;;;;;5032712;28;20041;-38
2023/12/10 04:48:29;;;;;;;23.45;2.90;;;9.10;99.90;;;;;;5032640;28;20029;-37
2023/12/10 04:50:55;;;;;;;19.15;2.88;;;9.10;99.90;;;;;;5022813;28;20052;-37
2023/12/10 04:53:21;;;;;;;26.30;3.40;;;9.10;99.90;;;;;;5032775;28;20033;-36
2023/12/10 04:55:47;;;;;;;18.30;2.17;;;9.20;99.90;;;;;;5032233;28;20195;-37
2023/12/10 04:58:15;;;;;;;8.75;2.42;;;9.20;99.90;;;;;;5032445;28;20112;-35
2023/12/10 05:00:40;;;;;;;15.63;2.42;;;9.20;99.90;;;;;;5032495;28;20108;-36
2023/12/10 05:03:06;;;;;;;18.73;2.35;;;9.30;99.90;;;;;;5032491;28;20137;-36
2023/12/10 05:05:32;;;;;;;30.83;3.67;;;9.40;99.90;;;;;;5032228;28;20112;-37
2023/12/10 05:07:57;;;;;;;15.27;2.45;;;9.30;99.90;;;;;;5032289;28;20063;-54
2023/12/10 05:10:23;;;;;;;34.33;3.28;;;9.40;99.90;;;;;;5032677;28;20028;-49
2023/12/10 05:12:49;;;;;;;14.25;2.40;;;9.40;99.90;;;;;;5032403;28;20087;-54
2023/12/10 05:15:15;;;;;;;27.33;3.03;;;9.30;99.90;;;;;;5032128;28;20104;-55
2023/12/10 05:17:41;;;;;;;23.00;3.53;;;9.40;99.90;;;;;;5032183;28;20124;-54
2023/12/10 05:20:07;;;;;;;16.67;2.05;;;9.50;99.90;;;;;;5035357;28;20455;-54
2023/12/10 05:22:33;;;;;;;30.05;3.40;;;9.50;99.90;;;;;;5035812;28;20494;-54
2023/12/10 05:25:00;;;;;;;25.10;3.03;;;9.50;99.90;;;;;;5036049;28;20410;-56
2023/12/10 05:27:31;;;;;;;17.17;3.05;;;9.50;99.90;;;;;;5036088;28;20021;-55
2023/12/10 05:29:56;;;;;;;17.55;3.28;;;9.50;99.90;;;;;;5035751;28;20035;-52
2023/12/10 05:32:22;;;;;;;24.83;4.78;;;9.50;99.90;;;;;;5035846;28;20109;-54
2023/12/10 05:34:48;;;;;;;24.25;3.55;;;9.50;99.90;;;;;;5035744;28;20075;-55
2023/12/10 05:37:13;;;;;;;18.02;2.28;;;9.50;99.90;;;;;;5036071;28;20021;-56
2023/12/10 05:39:39;;;;;;;23.38;2.60;;;9.50;99.90;;;;;;5034651;28;20049;-56
2023/12/10 05:42:05;;;;;;;29.17;2.95;;;9.50;99.90;;;;;;5035956;28;20026;-56
2023/12/10 05:44:30;;;;;;;21.13;2.42;;;9.50;99.90;;;;;;5034366;28;20022;-55
2023/12/10 05:46:56;;;;;;;21.95;3.65;;;9.50;99.90;;;;;;5035769;28;20101;-55
2023/12/10 05:49:22;;;;;;;15.75;2.40;;;9.50;99.90;;;;;;5035428;28;20022;-54
2023/12/10 05:51:48;;;;;;;19.23;2.42;;;9.50;99.90;;;;;;5035621;28;20619;-57
2023/12/10 05:54:14;;;;;;;13.05;2.30;;;9.40;99.90;;;;;;5035166;28;20138;-54
2023/12/10 05:56:41;;;;;;;15.38;2.53;;;9.50;99.90;;;;;;5035571;28;20068;-56
2023/12/10 05:59:07;;;;;;;19.95;3.08;;;9.50;99.90;;;;;;5035163;28;20025;-55
2023/12/10 06:01:33;;;;;;;19.55;2.15;;;9.40;99.90;;;;;;5035119;28;20387;-55
2023/12/10 06:03:58;;;;;;;23.92;2.72;;;9.50;99.90;;;;;;5035739;28;20025;-55
2023/12/10 06:06:24;;;;;;;14.95;2.00;;;9.50;99.90;;;;;;5035716;28;20044;-56
2023/12/10 06:08:50;;;;;;;15.55;1.65;;;9.50;99.90;;;;;;5035575;28;20029;-53
2023/12/10 06:11:15;;;;;;;20.92;3.55;;;9.40;99.90;;;;;;5035023;28;20021;-54
2023/12/10 06:13:41;;;;;;;23.75;2.83;;;9.40;99.90;;;;;;5035261;28;20108;-53
2023/12/10 06:16:07;;;;;;;19.13;2.17;;;9.40;99.90;;;;;;5035044;28;20474;-54
2023/12/10 06:18:33;;;;;;;18.42;2.35;;;9.40;99.90;;;;;;5035367;28;20463;-54
2023/12/10 06:20:58;;;;;;;25.55;3.10;;;9.40;99.90;;;;;;5034483;28;20052;-57
2023/12/10 06:23:24;;;;;;;18.58;2.67;;;9.40;99.90;;;;;;5018358;28;20026;-57
2023/12/10 06:25:50;;;;;;;14.57;2.45;;;9.40;99.90;;;;;;5030346;28;20226;-56
2023/12/10 06:28:16;;;;;;;31.17;3.25;;;9.40;99.90;;;;;;5033643;28;20479;-54
2023/12/10 06:30:42;;;;;;;28.60;2.80;;;9.40;99.90;;;;;;5032493;28;20025;-56
2023/12/10 06:33:07;;;;;;;21.15;2.65;;;9.40;99.90;;;;;;5032842;28;20021;-55
2023/12/10 06:35:33;;;;;;;18.98;3.50;;;9.40;99.90;;;;;;5034601;28;20109;-56
2023/12/10 06:37:59;;;;;;;11.57;1.67;;;9.50;99.90;;;;;;5035037;28;20038;-57
2023/12/10 06:40:24;;;;;;;23.92;5.50;;;9.50;99.90;;;;;;5034729;28;20033;-38
2023/12/10 06:42:50;;;;;;;21.92;2.88;;;9.50;99.90;;;;;;5034682;28;20025;-44
2023/12/10 06:45:16;;;;;;;11.48;1.95;;;9.60;99.90;;;;;;5034331;28;20021;-40
2023/12/10 06:47:42;;;;;;;25.40;3.03;;;9.50;99.90;;;;;;5034579;28;20026;-45
2023/12/10 06:50:08;;;;;;;21.40;2.40;;;9.60;99.90;;;;;;5034493;28;20037;-55
2023/12/10 06:52:34;;;;;;;16.77;2.80;;;9.60;99.90;;;;;;5034812;28;20116;-53
2023/12/10 06:55:00;;;;;;;22.25;2.95;;;9.60;99.90;;;;;;5034354;28;20502;-57
2023/12/10 06:57:26;;;;;;;26.35;4.00;;;9.60;99.90;;;;;;5034592;28;20025;-58
2023/12/10 06:59:52;;;;;;;22.42;3.53;;;9.60;99.90;;;;;;5034399;28;20513;-56
2023/12/10 07:02:18;;;;;;;20.23;1.80;;;9.60;99.90;;;;;;5034377;28;20041;-44
2023/12/10 07:04:44;;;;;;;18.88;3.05;;;9.60;99.90;;;;;;5034347;28;20475;-42
2023/12/10 07:07:10;;;;;;;22.52;2.00;;;9.70;99.90;;;;;;5034095;28;20022;-41
2023/12/10 07:09:35;;;;;;;23.88;2.78;;;9.60;99.90;;;;;;5034519;28;20033;-43
2023/12/10 07:12:02;;;;;;;20.88;3.05;;;9.70;99.90;;;;;;5034129;28;20033;-43
2023/12/10 07:14:27;;;;;;;18.35;2.25;;;9.60;99.90;;;;;;5033828;28;20037;-56
2023/12/10 07:16:53;;;;;;;17.55;2.85;;;9.60;99.90;;;;;;5034005;28;20438;-56
2023/12/10 07:19:19;;;;;;;27.33;2.28;;;9.70;99.90;;;;;;5033744;28;20539;-57
2023/12/10 07:21:44;;;;;;;17.08;2.88;;;9.60;99.90;;;;;;5033622;28;20052;-57
2023/12/10 07:24:10;;;;;;;17.27;2.15;;;9.70;99.90;;;;;;5033791;28;20033;-56
2023/12/10 07:26:36;;;;;;;8.63;1.88;;;9.70;99.90;;;;;;5033706;28;20462;-57
2023/12/10 07:29:01;;;;;;;18.27;2.35;;;9.70;99.90;;;;;;5033821;28;20101;-56
2023/12/10 07:31:27;;;;;;;25.70;2.45;;;9.70;99.90;;;;;;5033845;28;20029;-57
2023/12/10 07:33:53;;;;;;;22.63;3.00;;;9.70;99.90;;;;;;5032216;28;20029;-58
2023/12/10 07:36:18;;;;;;;23.52;2.75;;;9.70;99.90;;;;;;5033190;28;20029;-54
2023/12/10 07:38:44;;;;;;;12.63;2.22;;;9.70;99.90;;;;;;5033575;28;20037;-58
2023/12/10 07:41:10;;;;;;;30.02;2.65;;;9.70;99.90;;;;;;5033016;28;20052;-55
2023/12/10 07:43:38;;;;;;;15.13;3.65;;;9.70;99.90;;;;;;5033334;28;20025;-57
2023/12/10 07:46:04;;;;;;;23.58;2.70;;;9.70;99.90;;;;;;5033473;28;20022;-53
2023/12/10 07:48:30;;;;;;;18.50;2.05;;;9.70;99.90;;;;;;5033728;28;20084;-55
2023/12/10 07:50:55;;;;;;;24.23;4.28;;;9.70;99.90;;;;;;5033354;28;20021;-58
2023/12/10 07:53:22;;;;;;;29.02;3.83;;;9.70;99.90;;;;;;5033433;28;20361;-57
2023/12/10 07:55:47;;;;;;;6.20;1.80;;;9.70;99.90;;;;;;5033616;28;20364;-59
2023/12/10 07:58:13;;;;;;;14.85;1.90;;;9.70;99.90;;;;;;5033117;28;20079;-58
2023/12/10 08:00:39;;;;;;;24.23;2.92;;;9.70;99.90;;;;;;5033227;28;20080;-55
2023/12/10 08:03:05;;;;;;;25.30;2.55;;;9.70;99.90;;;;;;5032926;28;20061;-57
2023/12/10 08:05:31;;;;;;;17.45;1.95;;;9.70;99.90;;;;;;5032886;28;20030;-50
2023/12/10 08:08:02;;;;;;;19.60;2.40;;;9.70;99.90;;;;;;5031916;28;20025;-51
2023/12/10 08:10:29;;;;;;;17.73;1.92;;;9.70;99.90;;;;;;5033057;28;20057;-47
2023/12/10 08:12:54;;;;;;;27.17;3.70;;;9.70;99.90;;;;;;5033029;28;20511;-46
2023/12/10 08:15:21;;;;;;;19.10;2.65;;;9.70;99.90;;;;;;5032813;28;20109;-47
2023/12/10 08:17:47;;;;;;;16.58;2.60;;;9.70;99.90;;;;;;5032938;28;20098;-48
2023/12/10 08:20:12;;;;;;;19.80;2.97;;;9.80;99.90;;;;;;5032327;28;20112;-47
2023/12/10 08:22:38;;;;;;;23.33;2.72;;;9.70;99.90;;;;;;5032737;28;20060;-50
2023/12/10 08:25:05;;;;;;;11.27;1.95;;;9.70;99.90;;;;;;5031534;28;20021;-51
2023/12/10 08:27:31;;;;;;;15.60;2.03;;;9.70;99.90;;;;;;5032875;28;20387;-49
2023/12/10 08:29:57;;;;;;;16.90;2.45;;;9.70;99.90;;;;;;5032860;28;20025;-49
2023/12/10 08:32:22;;;;;;;11.50;1.42;;;9.70;99.90;;;;;;5032704;28;20063;-49
2023/12/10 08:34:48;;;;;;;23.92;2.95;;;9.80;99.90;;;;;;5032006;28;20076;-50
2023/12/10 08:37:14;;;;;;;17.02;2.95;;;9.80;99.90;;;;;;5032665;28;20053;-53
2023/12/10 08:39:40;;;;;;;13.23;4.03;;;9.80;99.90;;;;;;5032621;28;20021;-45
2023/12/10 08:42:05;;;;;;;18.42;3.15;;;9.90;99.90;;;;;;5032117;28;20093;-50
2023/12/10 08:44:31;;;;;;;21.23;2.83;;;9.80;99.90;;;;;;5032579;28;20093;-52
2023/12/10 08:46:57;;;;;;;14.13;2.70;;;9.80;99.90;;;;;;5031814;28;20048;-58
2023/12/10 08:49:23;;;;;;;11.90;2.78;;;9.70;99.90;;;;;;5032440;28;20030;-57
2023/12/10 08:51:48;;;;;;;14.70;1.95;;;9.70;99.90;;;;;;5032511;28;20033;-59
2023/12/10 08:54:14;;;;;;;13.00;3.28;;;9.70;99.90;;;;;;5035043;28;20025;-58
2023/12/10 08:56:40;;;;;;;17.92;2.33;;;9.80;99.90;;;;;;5022588;28;20034;-58
2023/12/10 08:59:05;;;;;;;12.30;2.00;;;9.80;99.90;;;;;;5016842;28;20022;-56
2023/12/10 09:01:31;;;;;;;9.65;2.15;;;9.80;99.90;;;;;;5016796;28;20026;-53
2023/12/10 09:03:57;;;;;;;15.98;1.92;;;9.80;99.90;;;;;;5016756;28;20026;-58
2023/12/10 09:06:22;;;;;;;25.23;2.13;;;9.80;99.90;;;;;;5029392;28;20026;-59
2023/12/10 09:08:48;;;;;;;17.42;2.05;;;9.80;99.90;;;;;;5036516;28;20033;-61
2023/12/10 09:11:14;;;;;;;12.77;2.22;;;9.90;99.90;;;;;;5036591;28;20475;-58
2023/12/10 09:13:40;;;;;;;13.15;2.13;;;9.90;99.90;;;;;;5036453;28;20391;-56
2023/12/10 09:16:09;;;;;;;10.52;2.08;;;10.00;99.90;;;;;;5035860;28;20108;-59
2023/12/10 09:18:34;;;;;;;23.90;3.13;;;9.90;99.90;;;;;;5036241;28;20030;-59
2023/12/10 09:21:01;;;;;;;22.27;2.22;;;10.00;99.90;;;;;;5034234;28;20395;-58
2023/12/10 09:23:27;;;;;;;21.63;2.08;;;9.90;99.90;;;;;;5034102;28;20017;-58
2023/12/10 09:25:53;;;;;;;24.50;2.42;;;10.00;99.90;;;;;;5034886;28;20031;-60
2023/12/10 09:28:18;;;;;;;17.08;1.95;;;10.00;99.90;;;;;;5036038;28;20100;-59
2023/12/10 09:30:44;;;;;;;16.40;2.22;;;10.10;99.90;;;;;;5034806;28;20029;-57
2023/12/10 09:33:10;;;;;;;11.10;2.10;;;10.00;99.90;;;;;;5035885;28;20030;-57
2023/12/10 09:35:36;;;;;;;17.67;2.35;;;10.10;99.90;;;;;;5034597;28;20060;-58
2023/12/10 09:38:05;;;;;;;15.50;2.33;;;10.10;99.90;;;;;;5035564;28;20033;-56
2023/12/10 09:40:31;;;;;;;18.63;2.30;;;10.20;99.90;;;;;;5034315;28;20095;-60
2023/12/10 09:42:57;;;;;;;10.85;2.25;;;10.20;99.90;;;;;;5035957;28;20060;-59
2023/12/10 09:45:23;;;;;;;20.48;3.13;;;10.30;99.90;;;;;;5035831;28;20029;-61
2023/12/10 09:47:50;;;;;;;15.50;2.08;;;10.40;99.90;;;;;;5035797;28;20029;-58
2023/12/10 09:50:18;;;;;;;26.10;3.28;;;10.40;99.90;;;;;;5036051;28;20508;-60
2023/12/10 09:52:44;;;;;;;;;;;10.30;99.90;;;;;;5035981;28;20029;-56
2023/12/10 09:55:09;;;;;;;20.88;3.83;;;10.30;99.90;;;;;;5035886;28;20028;-58
2023/12/10 09:57:35;;;;;;;12.88;2.38;;;10.30;99.90;;;;;;5033812;28;20057;-59
2023/12/10 10:00:01;;;;;;;12.77;1.75;;;10.20;99.90;;;;;;5033642;28;20028;-59
2023/12/10 10:02:36;;;;;;;17.17;2.70;;;10.20;99.90;;;;;;5033777;28;20024;-58
2023/12/10 10:05:03;;;;;;;16.38;2.20;;;10.30;99.90;;;;;;5034415;28;20521;-54
2023/12/10 10:07:29;;;;;;;8.00;1.80;;;10.20;99.90;;;;;;5035454;28;20571;-59
2023/12/10 10:09:55;;;;;;;18.75;2.08;;;10.20;99.90;;;;;;5034809;28;20044;-58
2023/12/10 10:12:21;;;;;;;14.32;2.17;;;10.20;99.90;;;;;;5035020;28;20475;-57
2023/12/10 10:14:57;;;;;;;10.68;2.08;;;10.20;99.90;;;;;;5035038;28;20053;-59
2023/12/10 10:17:31;;;;;;;9.68;1.85;;;10.20;99.90;;;;;;5034672;28;20125;-59
2023/12/10 10:19:57;;;;;;;15.63;2.22;;;10.40;99.90;;;;;;5034180;28;20518;-57
2023/12/10 10:22:24;;;;;;;13.52;1.75;;;10.50;99.90;;;;;;5035060;28;20502;-59
2023/12/10 10:24:51;;;;;;;20.58;2.67;;;10.60;99.90;;;;;;5034685;28;20025;-59
2023/12/10 10:27:18;;;;;;;15.88;2.38;;;10.70;99.90;;;;;;5035037;28;20438;-57
2023/12/10 10:29:44;;;;;;;20.33;2.45;;;10.60;99.90;;;;;;5035162;28;20029;-57
2023/12/10 10:32:16;;;;;;;13.15;3.53;;;10.80;99.90;;;;;;5034840;28;20503;-57
2023/12/10 10:34:46;;;;;;;10.75;2.17;;;10.80;99.90;;;;;;5033158;28;20033;-58
2023/12/10 10:37:15;;;;;;;28.35;2.88;;;10.70;99.90;;;;;;5034893;28;20337;-60
2023/12/10 10:39:41;;;;;;;7.22;1.95;;;10.60;99.90;;;;;;5034710;28;20502;-57
2023/12/10 10:42:08;;;;;;;15.82;2.97;;;10.60;99.90;;;;;;5034758;28;20021;-58
2023/12/10 10:44:41;;;;;;;24.92;2.88;;;10.60;99.90;;;;;;5034345;28;20061;-57
2023/12/10 10:47:08;;;;;;;10.60;1.63;;;10.60;99.90;;;;;;5033245;28;20049;-58
2023/12/10 10:49:41;;;;;;;12.25;1.85;;;10.50;99.90;;;;;;5034124;28;20034;-59
2023/12/10 10:52:13;;;;;;;16.00;3.15;;;10.50;99.90;;;;;;5034582;28;20021;-57
2023/12/10 10:54:39;;;;;;;6.07;1.63;;;10.60;99.90;;;;;;5034544;28;20052;-58
2023/12/10 10:57:05;;;;;;;20.35;1.60;;;10.70;99.90;;;;;;5034320;28;20032;-58
2023/12/10 10:59:33;;;;;;;27.85;1.98;;;10.70;99.90;;;;;;5034300;28;20033;-58
2023/12/10 11:02:00;;;;;;;22.33;2.33;;;10.80;99.90;;;;;;5034381;28;20025;-60
2023/12/10 11:04:37;;;;;;;11.17;1.80;;;10.80;99.90;;;;;;5033837;28;20021;-59
2023/12/10 11:07:05;;;;;;;15.63;2.08;;;10.70;99.90;;;;;;5031705;28;20313;-57
2023/12/10 11:09:31;;;;;;;15.70;1.83;;;10.60;99.90;;;;;;5032812;28;20120;-59
2023/12/10 11:12:00;;;;;;;24.15;3.08;;;10.60;99.90;;;;;;5034145;28;20820;-59
2023/12/10 11:14:28;;;;;;;7.20;1.60;;;10.70;99.90;;;;;;5034107;28;20033;-60
2023/12/10 11:17:04;;;;;;;15.00;1.92;;;10.70;99.90;;;;;;5033362;28;20475;-62
2023/12/10 11:19:33;;;;;;;15.90;2.20;;;10.80;99.90;;;;;;5033622;28;20042;-61
2023/12/10 11:21:59;;;;;;;14.27;1.77;;;10.70;99.90;;;;;;5033849;28;20036;-57
2023/12/10 11:24:25;;;;;;;15.20;2.38;;;10.80;99.90;;;;;;5033742;28;20030;-58
2023/12/10 11:26:51;;;;;;;18.02;2.25;;;10.80;99.90;;;;;;5034203;28;20028;-58
2023/12/10 11:29:17;;;;;;;7.43;2.10;;;10.90;99.90;;;;;;5033875;28;20505;-56
2023/12/10 11:31:46;;;;;;;9.82;1.63;;;11.00;99.90;;;;;;5033842;28;20064;-60
2023/12/10 11:34:12;;;;;;;16.48;1.50;;;11.00;99.90;;;;;;5033656;28;20486;-59
2023/12/10 11:36:38;;;;;;;10.05;1.70;;;10.90;99.90;;;;;;5033991;28;20044;-59
2023/12/10 11:39:11;;;;;;;8.55;2.25;;;10.90;99.90;;;;;;5033698;28;20509;-59
2023/12/10 11:41:38;;;;;;;11.55;2.30;;;11.00;99.90;;;;;;5034027;28;20033;-59
2023/12/10 11:44:04;;;;;;;22.48;2.33;;;11.10;99.90;;;;;;5028238;28;20097;-58
2023/12/10 11:46:30;;;;;;;5.93;1.83;;;11.10;99.90;;;;;;5013845;28;20119;-57
2023/12/10 11:48:56;;;;;;;14.77;1.85;;;11.10;99.90;;;;;;5015945;28;20483;-59
2023/12/10 11:51:22;;;;;;;15.93;2.45;;;11.10;99.90;;;;;;5033314;28;20489;-59
2023/12/10 11:53:49;;;;;;;12.27;2.58;;;11.10;99.90;;;;;;5033375;28;20029;-59
2023/12/10 11:56:14;;;;;;;20.83;1.95;;;11.10;99.90;;;;;;5033052;28;20076;-59
2023/12/10 11:58:44;;;;;;;18.85;2.20;;;11.20;99.90;;;;;;5033463;28;20438;-59
2023/12/10 12:01:11;;;;;;;11.98;1.63;;;11.30;99.90;;;;;;5032946;28;20431;-58
2023/12/10 12:03:37;;;;;;;12.75;2.03;;;11.20;99.90;;;;;;5033165;28;20021;-59
2023/12/10 12:06:04;;;;;;;11.57;2.55;;;11.30;99.90;;;;;;5033087;28;20033;-59
2023/12/10 12:08:30;;;;;;;6.47;1.30;;;11.30;99.90;;;;;;5029655;28;20483;-56
2023/12/10 12:10:58;;;;;;;14.32;2.97;;;11.30;99.90;;;;;;5013281;28;20092;-57
2023/12/10 12:13:24;;;;;;;11.40;1.65;;;11.40;99.90;;;;;;5022928;28;20539;-56
2023/12/10 12:15:51;;;;;;;9.95;1.30;;;11.40;99.90;;;;;;5033150;28;20112;-58
2023/12/10 12:18:17;;;;;;;13.85;2.22;;;11.40;99.90;;;;;;5032919;28;20514;-59
2023/12/10 12:20:44;;;;;;;17.42;0.93;;;11.20;99.90;;;;;;5032767;28;20069;-58
2023/12/10 12:23:10;;;;;;;17.17;2.50;;;11.10;99.90;;;;;;5032941;28;20029;-59
2023/12/10 12:25:38;;;;;;;15.57;2.63;;;11.20;99.90;;;;;;5032609;28;20029;-59
2023/12/10 12:28:07;;;;;;;17.17;2.17;;;11.20;99.90;;;;;;5032821;28;20030;-57
2023/12/10 12:30:34;;;;;;;12.80;1.70;;;11.20;99.90;;;;;;5033252;28;20494;-59
2023/12/10 12:33:03;;;;;;;16.98;2.05;;;11.30;99.90;;;;;;5033054;28;20649;-60
2023/12/10 12:35:29;;;;;;;11.98;1.95;;;11.30;99.90;;;;;;5032787;28;20029;-60
2023/12/10 12:37:55;;;;;;;12.02;1.85;;;11.40;99.90;;;;;;5030942;28;20037;-59
2023/12/10 12:40:30;;;;;;;7.55;1.75;;;11.40;99.90;;;;;;5032890;28;20501;-59